createdAt,value
2018-09-29T00:01:55.529Z,64.77
2018-09-29T00:04:23.609Z,64.70
2018-09-29T00:06:51.724Z,64.78
2018-09-29T00:09:19.870Z,64.86
2018-09-29T00:11:47.950Z,65.40
2018-09-29T00:14:16.005Z,65.36
2018-09-29T00:16:44.068Z,64.87
2018-09-29T00:19:12.154Z,65.54
2018-09-29T00:21:40.220Z,66.43
2018-09-29T00:24:08.276Z,66.33
2018-09-29T00:26:36.366Z,66.16
2018-09-29T00:29:04.539Z,66.55
2018-09-29T00:31:32.597Z,65.97
2018-09-29T00:34:00.681Z,66.98
2018-09-29T00:36:28.741Z,67.16
2018-09-29T00:38:56.795Z,66.21
2018-09-29T00:41:24.864Z,66.34
2018-09-29T00:43:52.929Z,67.66
2018-09-29T00:46:21.001Z,66.31
2018-09-29T00:48:49.097Z,66.13
2018-09-29T00:51:17.157Z,67.36
2018-09-29T00:53:45.222Z,66.35
2018-09-29T00:56:13.321Z,66.70
2018-09-29T00:58:41.373Z,66.38
2018-09-29T01:01:09.441Z,67.37
2018-09-29T01:03:37.498Z,66.58
2018-09-29T01:06:05.558Z,67.27
2018-09-29T01:08:33.617Z,67.77
2018-09-29T01:11:01.697Z,67.57
2018-09-29T01:13:29.768Z,66.99
2018-09-29T01:15:57.822Z,66.84
2018-09-29T01:18:25.907Z,68.08
2018-09-29T01:20:53.966Z,66.68
2018-09-29T01:23:22.043Z,66.93
2018-09-29T01:25:50.089Z,67.70
2018-09-29T01:28:18.149Z,67.86
2018-09-29T01:30:46.200Z,67.20
2018-09-29T01:33:14.287Z,67.64
2018-09-29T01:35:42.355Z,68.18
2018-09-29T01:38:10.413Z,67.41
2018-09-29T01:40:38.465Z,67.92
2018-09-29T01:43:06.742Z,68.09
2018-09-29T01:45:34.801Z,68.61
2018-09-29T01:48:02.976Z,68.63
2018-09-29T01:50:31.034Z,68.84
2018-09-29T01:52:59.221Z,68.50
2018-09-29T01:55:27.285Z,68.00
2018-09-29T01:57:55.364Z,68.42
2018-09-29T02:00:23.437Z,68.33
2018-09-29T02:02:51.501Z,69.06
2018-09-29T02:05:19.569Z,69.04
2018-09-29T02:07:47.654Z,69.51
2018-09-29T02:10:15.713Z,69.15
2018-09-29T02:12:43.781Z,68.40
2018-09-29T02:15:11.841Z,68.55
2018-09-29T02:17:39.929Z,69.61
2018-09-29T02:20:08.050Z,69.30
2018-09-29T02:22:36.169Z,69.81
2018-09-29T02:25:04.233Z,70.06
2018-09-29T02:27:32.297Z,69.98
2018-09-29T02:30:00.364Z,69.32
2018-09-29T02:32:28.441Z,69.65
2018-09-29T02:34:56.493Z,69.17
2018-09-29T02:37:24.558Z,69.78
2018-09-29T02:39:52.654Z,69.30
2018-09-29T02:42:20.733Z,69.52
2018-09-29T02:44:48.826Z,69.25
2018-09-29T02:47:16.885Z,70.04
2018-09-29T02:49:45.029Z,69.96
2018-09-29T02:52:13.107Z,69.46
2018-09-29T02:54:41.161Z,69.27
2018-09-29T02:57:09.344Z,69.07
2018-09-29T02:59:37.653Z,69.67
2018-09-29T03:02:05.789Z,70.39
2018-09-29T03:04:33.868Z,69.67
2018-09-29T03:07:01.942Z,70.24
2018-09-29T03:09:30.010Z,69.25
2018-09-29T03:11:58.077Z,69.60
2018-09-29T03:14:26.149Z,69.44
2018-09-29T03:16:54.196Z,69.45
2018-09-29T03:19:22.278Z,69.94
2018-09-29T03:21:50.358Z,70.05
2018-09-29T03:24:18.421Z,70.54
2018-09-29T03:26:46.481Z,69.76
2018-09-29T03:29:14.541Z,70.14
2018-09-29T03:31:42.857Z,70.45
2018-09-29T03:34:10.702Z,70.43
2018-09-29T03:36:38.776Z,70.11
2018-09-29T03:39:08.572Z,70.57
2018-09-29T03:41:36.850Z,70.55
2018-09-29T03:44:04.937Z,70.45
2018-09-29T03:46:32.998Z,70.35
2018-09-29T03:49:01.078Z,70.08
2018-09-29T03:51:29.126Z,70.81
2018-09-29T03:53:57.323Z,70.88
2018-09-29T03:56:25.389Z,70.79
2018-09-29T03:58:53.451Z,70.53
2018-09-29T04:01:21.520Z,70.67
2018-09-29T04:03:49.626Z,71.15
2018-09-29T04:06:17.681Z,71.22
2018-09-29T04:08:45.754Z,70.77
2018-09-29T04:11:13.842Z,71.37
2018-09-29T04:13:41.978Z,71.01
2018-09-29T04:16:10.006Z,70.97
2018-09-29T04:18:38.118Z,70.74
2018-09-29T04:21:06.289Z,70.95
2018-09-29T04:23:34.349Z,71.65
2018-09-29T04:26:02.423Z,71.29
2018-09-29T04:28:30.496Z,71.66
2018-09-29T04:30:58.559Z,72.17
2018-09-29T04:33:26.644Z,71.55
2018-09-29T04:35:54.702Z,72.21
2018-09-29T04:38:22.774Z,72.14
2018-09-29T04:40:50.881Z,72.36
2018-09-29T04:43:19.000Z,72.32
2018-09-29T04:45:47.071Z,71.74
2018-09-29T04:48:15.165Z,71.60
2018-09-29T04:50:43.234Z,72.64
2018-09-29T04:53:11.298Z,71.80
2018-09-29T04:55:39.372Z,72.22
2018-09-29T04:58:07.447Z,72.41
2018-09-29T05:00:35.518Z,72.79
2018-09-29T05:03:03.569Z,72.82
2018-09-29T05:05:31.624Z,72.94
2018-09-29T05:07:59.676Z,72.60
2018-09-29T05:10:27.798Z,72.06
2018-09-29T05:12:55.849Z,72.95
2018-09-29T05:15:23.936Z,71.94
2018-09-29T05:17:52.013Z,73.07
2018-09-29T05:20:20.070Z,72.65
2018-09-29T05:22:48.129Z,72.05
2018-09-29T05:25:16.183Z,73.25
2018-09-29T05:27:44.248Z,73.37
2018-09-29T05:30:12.323Z,73.53
2018-09-29T05:32:40.392Z,73.27
2018-09-29T05:35:08.497Z,73.56
2018-09-29T05:37:36.562Z,73.12
2018-09-29T05:40:04.668Z,73.44
2018-09-29T05:42:32.761Z,73.44
2018-09-29T05:45:00.868Z,72.83
2018-09-29T05:47:28.930Z,73.41
2018-09-29T05:49:57.017Z,73.97
2018-09-29T05:52:25.069Z,73.38
2018-09-29T05:54:53.127Z,73.32
2018-09-29T05:57:21.182Z,73.88
2018-09-29T05:59:49.302Z,73.81
2018-09-29T06:02:17.425Z,73.89
2018-09-29T06:04:45.493Z,74.38
2018-09-29T06:07:13.643Z,74.04
2018-09-29T06:09:41.650Z,73.41
2018-09-29T06:12:09.740Z,73.41
2018-09-29T06:14:37.810Z,73.35
2018-09-29T06:17:05.865Z,72.98
2018-09-29T06:19:33.960Z,73.03
2018-09-29T06:22:02.021Z,72.96
2018-09-29T06:24:30.093Z,73.66
2018-09-29T06:26:58.145Z,73.02
2018-09-29T06:29:26.221Z,73.32
2018-09-29T06:31:54.274Z,73.46
2018-09-29T06:34:23.449Z,72.72
2018-09-29T06:36:51.490Z,73.62
2018-09-29T06:39:19.513Z,73.30
2018-09-29T06:41:47.619Z,73.01
2018-09-29T06:44:15.677Z,73.02
2018-09-29T06:46:43.745Z,72.80
2018-09-29T06:49:11.819Z,72.29
2018-09-29T06:51:39.889Z,72.27
2018-09-29T06:54:07.943Z,71.74
2018-09-29T06:56:35.999Z,72.01
2018-09-29T06:59:04.055Z,71.12
2018-09-29T07:01:32.125Z,70.78
2018-09-29T07:04:00.243Z,69.87
2018-09-29T07:06:28.312Z,68.44
2018-09-29T07:08:56.478Z,67.55
2018-09-29T07:11:24.564Z,68.98
2018-09-29T07:13:52.617Z,65.60
2018-09-29T07:16:20.693Z,64.20
2018-09-29T07:18:48.769Z,62.10
2018-09-29T07:21:16.837Z,61.44
2018-09-29T07:23:44.885Z,61.34
2018-09-29T07:26:12.979Z,61.07
2018-09-29T07:28:41.040Z,60.86
2018-09-29T07:31:09.109Z,61.00
2018-09-29T07:33:37.181Z,61.34
2018-09-29T07:36:05.254Z,60.65
2018-09-29T07:38:33.306Z,60.81
2018-09-29T07:41:01.402Z,61.10
2018-09-29T07:43:29.477Z,61.35
2018-09-29T07:45:57.617Z,61.74
2018-09-29T07:48:25.716Z,61.52
2018-09-29T07:50:53.773Z,61.94
2018-09-29T07:53:21.830Z,61.81
2018-09-29T07:55:49.960Z,62.11
2018-09-29T07:58:17.997Z,61.66
2018-09-29T08:00:46.085Z,62.33
2018-09-29T08:03:14.195Z,62.29
2018-09-29T08:05:42.269Z,61.89
2018-09-29T08:08:10.334Z,62.04
2018-09-29T08:10:39.023Z,61.97
2018-09-29T08:13:07.535Z,62.00
2018-09-29T08:15:36.121Z,62.45
2018-09-29T08:18:05.152Z,62.48
2018-09-29T08:20:34.116Z,62.38
2018-09-29T08:23:02.607Z,61.99
2018-09-29T08:25:31.171Z,61.23
2018-09-29T08:27:59.851Z,62.32
2018-09-29T08:30:28.518Z,61.86
2018-09-29T08:32:57.129Z,61.50
2018-09-29T08:35:25.780Z,61.67
2018-09-29T08:37:54.395Z,61.16
2018-09-29T08:40:22.829Z,60.85
2018-09-29T08:42:51.217Z,60.47
2018-09-29T08:45:19.797Z,60.26
2018-09-29T08:47:48.576Z,60.59
2018-09-29T08:50:16.665Z,60.09
2018-09-29T08:52:44.737Z,60.40
2018-09-29T08:55:12.801Z,59.94
2018-09-29T08:57:40.872Z,59.98
2018-09-29T09:00:08.941Z,60.00
2018-09-29T09:02:37.225Z,59.83
2018-09-29T09:05:05.294Z,58.81
2018-09-29T09:07:33.441Z,58.85
2018-09-29T09:10:01.523Z,58.53
2018-09-29T09:12:29.608Z,58.94
2018-09-29T09:14:57.678Z,58.41
2018-09-29T09:17:25.756Z,58.44
2018-09-29T09:19:53.818Z,58.34
2018-09-29T09:22:21.902Z,57.93
2018-09-29T09:24:49.965Z,58.14
2018-09-29T09:27:18.047Z,57.32
2018-09-29T09:29:46.163Z,57.56
2018-09-29T09:32:14.239Z,57.50
2018-09-29T09:34:42.315Z,57.13
2018-09-29T09:37:10.413Z,57.24
2018-09-29T09:39:38.471Z,63.79
2018-09-29T09:42:06.554Z,58.36
2018-09-29T09:44:34.609Z,55.77
2018-09-29T09:47:02.706Z,55.33
2018-09-29T09:49:30.847Z,55.16
2018-09-29T09:51:58.864Z,53.78
2018-09-29T09:54:26.924Z,53.71
2018-09-29T09:56:54.992Z,53.53
2018-09-29T09:59:23.053Z,53.18
2018-09-29T10:01:56.722Z,52.78
2018-09-29T10:04:24.921Z,51.83
2018-09-29T10:06:53.086Z,51.91
2018-09-29T10:09:21.153Z,52.05
2018-09-29T10:11:49.235Z,49.68
2018-09-29T10:14:17.317Z,54.41
2018-09-29T10:16:45.393Z,52.08
2018-09-29T10:19:21.671Z,51.65
2018-09-29T10:21:49.747Z,49.62
2018-09-29T10:24:17.832Z,50.66
2018-09-29T10:26:45.957Z,50.58
2018-09-29T10:29:14.030Z,50.63
2018-09-29T10:31:42.103Z,50.23
2018-09-29T10:34:10.202Z,47.99
2018-09-29T10:36:38.308Z,48.01
2018-09-29T10:39:08.614Z,48.92
2018-09-29T10:41:36.693Z,47.72
2018-09-29T10:44:04.812Z,48.08
2018-09-29T10:46:32.853Z,47.40
2018-09-29T10:49:00.965Z,47.77
2018-09-29T10:51:29.029Z,47.39
2018-09-29T10:53:57.105Z,48.30
2018-09-29T10:56:25.184Z,47.66
2018-09-29T10:58:53.324Z,47.45
2018-09-29T11:01:21.409Z,47.54
2018-09-29T11:03:49.524Z,47.56
2018-09-29T11:06:17.597Z,47.72
2018-09-29T11:08:45.698Z,46.64
2018-09-29T11:11:14.103Z,47.75
2018-09-29T11:13:42.212Z,47.54
2018-09-29T11:16:10.286Z,46.84
2018-09-29T11:18:38.430Z,47.75
2018-09-29T11:21:06.514Z,46.62
2018-09-29T11:23:34.602Z,46.35
2018-09-29T11:26:02.665Z,47.49
2018-09-29T11:28:30.776Z,47.20
2018-09-29T11:30:58.845Z,47.14
2018-09-29T11:33:27.029Z,45.94
2018-09-29T11:35:55.111Z,45.81
2018-09-29T11:38:23.198Z,46.27
2018-09-29T11:40:51.275Z,44.68
2018-09-29T11:43:19.377Z,45.13
2018-09-29T11:45:47.828Z,42.95
2018-09-29T11:48:16.344Z,42.89
2018-09-29T11:50:44.910Z,41.31
2018-09-29T11:53:13.504Z,42.43
2018-09-29T11:55:43.218Z,42.35
2018-09-29T11:58:11.317Z,42.96
2018-09-29T12:00:39.429Z,42.80
2018-09-29T12:03:07.549Z,42.91
2018-09-29T12:05:35.657Z,43.00
2018-09-29T12:08:03.827Z,42.92
2018-09-29T12:10:33.570Z,42.23
2018-09-29T12:13:02.196Z,43.48
2018-09-29T12:15:30.674Z,43.57
2018-09-29T12:17:59.471Z,43.30
2018-09-29T12:20:28.106Z,43.88
2018-09-29T12:22:56.690Z,43.77
2018-09-29T12:25:25.700Z,43.41
2018-09-29T12:27:54.564Z,43.44
2018-09-29T12:30:23.071Z,43.10
2018-09-29T12:32:52.423Z,43.21
2018-09-29T12:35:20.970Z,42.85
2018-09-29T12:37:49.781Z,41.97
2018-09-29T12:40:18.376Z,42.43
2018-09-29T12:42:46.458Z,41.89
2018-09-29T12:45:14.577Z,42.02
2018-09-29T12:47:42.784Z,42.52
2018-09-29T12:50:10.839Z,42.65
2018-09-29T12:52:38.885Z,43.10
2018-09-29T12:55:06.972Z,43.06
2018-09-29T12:57:35.037Z,43.67
2018-09-29T13:00:03.142Z,43.44
2018-09-29T13:02:31.246Z,43.58
2018-09-29T13:04:59.347Z,44.08
2018-09-29T13:07:27.410Z,44.04
2018-09-29T13:09:55.489Z,43.92
2018-09-29T13:12:23.562Z,44.50
2018-09-29T13:14:51.653Z,43.95
2018-09-29T13:17:19.725Z,44.20
2018-09-29T13:19:47.812Z,44.09
2018-09-29T13:22:15.878Z,43.90
2018-09-29T13:24:43.959Z,43.85
2018-09-29T13:27:12.034Z,43.11
2018-09-29T13:29:40.218Z,43.43
2018-09-29T13:32:08.222Z,43.09
2018-09-29T13:34:36.422Z,42.94
2018-09-29T13:37:04.521Z,42.98
2018-09-29T13:39:32.625Z,42.52
2018-09-29T13:42:00.837Z,42.86
2018-09-29T13:44:29.118Z,42.97
2018-09-29T13:46:57.248Z,42.99
2018-09-29T13:49:25.417Z,42.94
2018-09-29T13:51:53.557Z,42.92
2018-09-29T13:54:21.645Z,43.39
2018-09-29T13:56:49.754Z,43.29
2018-09-29T13:59:17.931Z,43.36
2018-09-29T14:01:46.022Z,43.12
2018-09-29T14:04:14.114Z,43.57
2018-09-29T14:06:42.193Z,42.81
2018-09-29T14:09:10.862Z,43.70
2018-09-29T14:11:38.946Z,43.52
2018-09-29T14:14:07.827Z,43.50
2018-09-29T14:16:35.930Z,43.75
2018-09-29T14:19:04.198Z,43.67
2018-09-29T14:21:32.329Z,43.38
2018-09-29T14:24:00.401Z,43.26
2018-09-29T14:26:28.482Z,51.04
2018-09-29T14:28:56.566Z,44.16
2018-09-29T14:31:24.674Z,43.36
2018-09-29T14:33:52.761Z,43.56
2018-09-29T14:36:20.853Z,42.91
2018-09-29T14:38:49.105Z,43.05
2018-09-29T14:41:17.184Z,42.65
2018-09-29T14:43:45.369Z,42.38
2018-09-29T14:46:13.442Z,42.61
2018-09-29T14:48:41.551Z,42.19
2018-09-29T14:51:09.622Z,41.17
2018-09-29T14:53:37.693Z,41.42
2018-09-29T14:56:05.774Z,41.36
2018-09-29T14:58:33.850Z,41.01
2018-09-29T15:01:01.956Z,41.59
2018-09-29T15:03:30.025Z,41.37
2018-09-29T15:05:58.134Z,40.93
2018-09-29T15:08:26.330Z,40.71
2018-09-29T15:10:54.487Z,40.90
2018-09-29T15:13:22.753Z,40.79
2018-09-29T15:15:51.083Z,40.67
2018-09-29T15:18:19.189Z,40.62
2018-09-29T15:20:47.273Z,40.61
2018-09-29T15:23:15.377Z,41.02
2018-09-29T15:25:43.465Z,40.92
2018-09-29T15:28:11.673Z,40.94
2018-09-29T15:30:39.779Z,40.60
2018-09-29T15:33:07.906Z,41.11
2018-09-29T15:35:36.060Z,41.24
2018-09-29T15:38:04.173Z,41.37
2018-09-29T15:40:32.242Z,41.65
2018-09-29T15:43:00.538Z,41.37
2018-09-29T15:45:28.465Z,41.71
2018-09-29T15:47:56.593Z,41.34
2018-09-29T15:50:24.711Z,41.98
2018-09-29T15:52:52.971Z,41.32
2018-09-29T15:55:21.208Z,41.42
2018-09-29T15:57:49.240Z,41.20
2018-09-29T16:00:17.344Z,41.25
2018-09-29T16:02:45.441Z,41.26
2018-09-29T16:05:13.515Z,41.54
2018-09-29T16:07:41.674Z,41.53
2018-09-29T16:10:09.822Z,41.88
2018-09-29T16:12:38.001Z,41.56
2018-09-29T16:15:06.282Z,42.11
2018-09-29T16:17:34.349Z,42.25
2018-09-29T16:20:02.427Z,42.14
2018-09-29T16:22:30.509Z,42.35
2018-09-29T16:24:59.617Z,42.24
2018-09-29T16:27:27.689Z,42.72
2018-09-29T16:29:55.855Z,42.89
2018-09-29T16:32:23.966Z,42.48
2018-09-29T16:34:52.062Z,42.87
2018-09-29T16:37:20.155Z,42.84
2018-09-29T16:39:48.246Z,43.63
2018-09-29T16:42:16.387Z,43.19
2018-09-29T16:44:44.483Z,43.25
2018-09-29T16:47:12.578Z,43.33
2018-09-29T16:49:40.705Z,43.68
2018-09-29T16:52:08.790Z,43.97
2018-09-29T16:54:36.894Z,43.92
2018-09-29T16:57:04.995Z,44.16
2018-09-29T16:59:33.082Z,44.00
2018-09-29T17:02:01.162Z,44.30
2018-09-29T17:04:29.316Z,44.69
2018-09-29T17:06:57.433Z,45.32
2018-09-29T17:09:25.497Z,45.06
2018-09-29T17:11:54.404Z,45.55
2018-09-29T17:14:22.481Z,45.41
2018-09-29T17:16:50.557Z,45.39
2018-09-29T17:19:18.729Z,45.45
2018-09-29T17:21:46.835Z,46.05
2018-09-29T17:24:14.893Z,46.15
2018-09-29T17:26:42.965Z,46.73
2018-09-29T17:29:11.051Z,47.07
2018-09-29T17:31:39.163Z,47.70
2018-09-29T17:34:07.227Z,48.19
2018-09-29T17:36:35.297Z,48.53
2018-09-29T17:39:03.882Z,48.90
2018-09-29T17:41:31.957Z,49.37
2018-09-29T17:44:00.022Z,49.47
2018-09-29T17:46:28.095Z,50.24
2018-09-29T17:48:56.253Z,50.42
2018-09-29T17:51:24.398Z,50.68
2018-09-29T17:53:52.441Z,50.80
2018-09-29T17:56:20.522Z,50.82
2018-09-29T17:58:48.805Z,51.38
2018-09-29T18:01:16.912Z,51.38
2018-09-29T18:03:44.985Z,51.34
2018-09-29T18:06:13.056Z,51.92
2018-09-29T18:08:41.178Z,52.12
2018-09-29T18:11:09.272Z,52.90
2018-09-29T18:13:37.441Z,52.65
2018-09-29T18:16:05.449Z,52.79
2018-09-29T18:18:33.530Z,52.78
2018-09-29T18:21:01.593Z,53.64
2018-09-29T18:23:29.698Z,53.76
2018-09-29T18:25:57.762Z,53.64
2018-09-29T18:28:26.010Z,54.15
2018-09-29T18:30:54.069Z,54.23
2018-09-29T18:33:22.159Z,54.13
2018-09-29T18:35:50.324Z,55.09
2018-09-29T18:38:18.321Z,55.25
2018-09-29T18:40:46.386Z,55.08
2018-09-29T18:43:14.473Z,55.20
2018-09-29T18:45:42.577Z,55.59
2018-09-29T18:48:10.650Z,55.91
2018-09-29T18:50:38.725Z,55.57
2018-09-29T18:53:06.793Z,56.09
2018-09-29T18:55:34.872Z,56.11
2018-09-29T18:58:02.951Z,56.70
2018-09-29T19:00:31.054Z,64.84
2018-09-29T19:02:59.309Z,71.10
2018-09-29T19:05:27.397Z,64.44
2018-09-29T19:07:55.529Z,62.58
2018-09-29T19:10:23.614Z,60.77
2018-09-29T19:12:51.753Z,59.62
2018-09-29T19:15:19.809Z,58.46
2018-09-29T19:17:47.897Z,57.40
2018-09-29T19:20:16.005Z,56.13
2018-09-29T19:22:44.078Z,56.17
2018-09-29T19:25:12.185Z,55.03
2018-09-29T19:27:40.286Z,54.00
2018-09-29T19:30:08.397Z,53.44
2018-09-29T19:32:36.489Z,50.63
2018-09-29T19:35:04.601Z,49.26
2018-09-29T19:37:32.695Z,48.57
2018-09-29T19:40:00.782Z,48.50
2018-09-29T19:42:28.858Z,48.59
2018-09-29T19:44:56.942Z,49.44
2018-09-29T19:47:25.130Z,49.42
2018-09-29T19:49:53.221Z,50.26
2018-09-29T19:52:21.293Z,51.10
2018-09-29T19:54:49.369Z,51.63
2018-09-29T19:57:17.441Z,52.46
2018-09-29T19:59:45.534Z,52.59
2018-09-29T20:02:13.634Z,53.43
2018-09-29T20:04:41.753Z,54.13
2018-09-29T20:07:09.834Z,54.52
2018-09-29T20:09:37.935Z,55.13
2018-09-29T20:12:06.025Z,55.15
2018-09-29T20:14:34.118Z,56.01
2018-09-29T20:17:02.196Z,56.53
2018-09-29T20:19:30.272Z,57.37
2018-09-29T20:21:58.373Z,57.32
2018-09-29T20:24:26.528Z,56.97
2018-09-29T20:26:54.573Z,57.62
2018-09-29T20:29:22.660Z,57.98
2018-09-29T20:31:50.802Z,58.05
2018-09-29T20:34:18.915Z,57.75
2018-09-29T20:36:47.002Z,58.38
2018-09-29T20:39:15.122Z,58.16
2018-09-29T20:41:43.521Z,58.12
2018-09-29T20:44:11.809Z,58.35
2018-09-29T20:46:39.893Z,59.03
2018-09-29T20:49:08.661Z,58.76
2018-09-29T20:51:37.065Z,59.58
2018-09-29T20:54:05.437Z,59.30
2018-09-29T20:56:33.531Z,59.25
2018-09-29T20:59:01.610Z,59.57
2018-09-29T21:01:29.709Z,60.04
2018-09-29T21:03:57.818Z,59.83
2018-09-29T21:06:26.165Z,59.71
2018-09-29T21:08:54.250Z,59.79
2018-09-29T21:11:22.326Z,59.89
2018-09-29T21:13:50.471Z,60.39
2018-09-29T21:16:18.550Z,59.93
2018-09-29T21:18:46.618Z,59.88
2018-09-29T21:21:14.714Z,60.24
2018-09-29T21:23:42.793Z,60.20
2018-09-29T21:26:10.924Z,60.42
2018-09-29T21:28:39.009Z,60.56
2018-09-29T21:31:07.097Z,60.76
2018-09-29T21:33:35.185Z,60.45
2018-09-29T21:36:03.281Z,60.60
2018-09-29T21:38:31.390Z,60.87
2018-09-29T21:40:59.461Z,62.58
2018-09-29T21:43:27.538Z,71.90
2018-09-29T21:45:55.633Z,71.87
2018-09-29T21:48:23.701Z,72.86
2018-09-29T21:50:51.768Z,71.28
2018-09-29T21:53:20.091Z,69.92
2018-09-29T21:55:48.166Z,69.53
2018-09-29T21:58:16.466Z,68.99
2018-09-29T22:00:45.465Z,69.32
2018-09-29T22:03:14.854Z,68.02
2018-09-29T22:05:43.233Z,65.32
2018-09-29T22:08:11.496Z,66.81
2018-09-29T22:10:39.568Z,66.47
2018-09-29T22:13:07.662Z,66.37
2018-09-29T22:15:35.753Z,66.09
2018-09-29T22:18:03.825Z,66.13
2018-09-29T22:20:31.881Z,64.75
2018-09-29T22:22:59.941Z,64.40
2018-09-29T22:25:28.009Z,64.00
2018-09-29T22:27:56.070Z,62.93
2018-09-29T22:30:24.153Z,64.12
2018-09-29T22:32:52.308Z,62.79
2018-09-29T22:35:20.385Z,62.78
2018-09-29T22:37:48.452Z,63.79
2018-09-29T22:40:16.517Z,62.38
2018-09-29T22:42:44.582Z,62.02
2018-09-29T22:45:12.669Z,63.90
2018-09-29T22:47:40.729Z,64.44
2018-09-29T22:50:08.798Z,63.47
2018-09-29T22:52:36.877Z,64.18
2018-09-29T22:55:04.940Z,64.15
2018-09-29T22:57:33.039Z,63.77
2018-09-29T23:00:01.081Z,63.67
2018-09-29T23:02:29.161Z,64.75
2018-09-29T23:04:57.230Z,64.71
2018-09-29T23:07:25.321Z,62.63
2018-09-29T23:09:53.373Z,63.95
2018-09-29T23:12:21.442Z,64.31
2018-09-29T23:14:49.497Z,63.83
2018-09-29T23:17:17.568Z,63.26
2018-09-29T23:19:45.626Z,64.24
2018-09-29T23:22:13.690Z,63.21
2018-09-29T23:24:41.785Z,63.21
2018-09-29T23:27:09.850Z,62.80
2018-09-29T23:29:37.916Z,63.13
2018-09-29T23:32:06.009Z,63.28
2018-09-29T23:34:34.099Z,63.66
2018-09-29T23:37:02.166Z,62.73
2018-09-29T23:39:30.228Z,63.88
2018-09-29T23:41:58.314Z,62.65
2018-09-29T23:44:26.451Z,61.90
2018-09-29T23:46:54.633Z,62.39
2018-09-29T23:49:22.690Z,63.34
2018-09-29T23:51:50.765Z,63.54
2018-09-29T23:54:18.822Z,62.76
2018-09-29T23:56:46.908Z,63.45
2018-09-29T23:59:14.958Z,61.77
